Time;durP1;ratioP1;P1;durP2;ratioP2;P2;SDS_P1;SDS_P2;PMS_P1;PMS_P2;Temp;Humidity;BMP_temperature;BMP_pressure;BME280_temperature;BME280_humidity;BME280_pressure;Samples;Min_cycle;Max_cycle;Signal;HPM_P1;HPM_P2
2021/08/04 00:00:31;;;;;;;3.65;1.90;;;;;;;23.46;60.76;100249.34;5114363;28;20031;-79
2021/08/04 00:02:59;;;;;;;5.60;1.70;;;;;;;23.53;60.30;100257.63;5131190;27;20031;-79
2021/08/04 00:05:27;;;;;;;5.20;1.77;;;;;;;23.49;60.40;100244.81;5113994;28;20047;-79
2021/08/04 00:07:56;;;;;;;3.60;1.33;;;;;;;23.43;60.63;100236.03;5113929;28;20046;-79
2021/08/04 00:10:21;;;;;;;3.38;1.85;;;;;;;23.47;60.46;100231.03;5113839;28;20525;-79
2021/08/04 00:12:47;;;;;;;4.00;1.52;;;;;;;23.42;60.88;100231.59;5113853;28;20165;-79
2021/08/04 00:15:17;;;;;;;7.22;1.75;;;;;;;23.49;60.89;100234.25;5114046;27;20031;-79
2021/08/04 00:17:46;;;;;;;3.45;1.48;;;;;;;23.36;61.51;100224.09;5114350;28;20083;-79
2021/08/04 00:20:14;;;;;;;4.65;1.83;;;;;;;23.30;61.74;100223.84;5130817;27;20028;-79
2021/08/04 00:22:42;;;;;;;4.30;2.05;;;;;;;23.40;61.99;100224.78;5113739;28;20038;-79
2021/08/04 00:25:09;;;;;;;5.38;2.05;;;;;;;23.29;62.23;100216.56;5130941;27;20553;-79
2021/08/04 00:27:38;;;;;;;1.90;1.52;;;;;;;23.25;62.47;100207.38;5114136;28;20041;-79
2021/08/04 00:30:09;;;;;;;3.38;1.42;;;;;;;23.21;62.50;100213.13;5114442;27;20028;-79
2021/08/04 00:32:37;;;;;;;4.90;1.48;;;;;;;23.26;62.45;100208.94;5113410;28;20486;-79
2021/08/04 00:35:06;;;;;;;1.85;1.35;;;;;;;23.04;62.43;100185.28;5113008;28;20024;-79
2021/08/04 00:37:37;;;;;;;1.73;1.23;;;;;;;23.10;63.10;100212.63;5114160;28;20438;-78
2021/08/04 00:40:06;;;;;;;5.75;1.48;;;;;;;23.16;62.85;100204.38;5113467;28;20024;-79
2021/08/04 00:42:37;;;;;;;4.95;1.35;;;;;;;23.04;63.06;100202.28;5130489;27;20029;-78
2021/08/04 00:45:04;;;;;;;1.77;1.42;;;;;;;23.02;63.39;100193.44;5113333;28;20023;-79
2021/08/04 00:47:33;;;;;;;1.95;1.20;;;;;;;22.96;63.79;100196.81;5113232;28;20501;-78
2021/08/04 00:50:00;;;;;;;2.30;1.50;;;;;;;22.97;63.71;100198.41;5113376;28;20027;-79
2021/08/04 00:52:28;;;;;;;3.15;1.60;;;;;;;22.95;63.57;100186.69;5113973;28;20073;-79
2021/08/04 00:54:54;;;;;;;5.13;1.60;;;;;;;22.90;63.55;100192.91;5113091;28;20023;-79
2021/08/04 00:57:24;;;;;;;3.47;1.63;;;;;;;22.94;63.20;100196.47;5113061;28;20028;-79
2021/08/04 00:59:53;;;;;;;4.07;1.77;;;;;;;22.92;62.70;100189.66;5113035;28;20055;-79
2021/08/04 01:02:30;;;;;;;3.58;1.67;;;;;;;22.88;61.96;100188.94;5112992;28;20557;-78
2021/08/04 01:05:21;;;;;;;3.63;1.98;;;;;;;22.86;61.90;100191.41;5113461;28;20427;-78
2021/08/04 01:08:04;;;;;;;3.13;1.40;;;;;;;22.83;61.73;100183.78;5113914;28;20466;-78
2021/08/04 01:10:36;;;;;;;2.17;1.40;;;;;;;22.89;61.66;100173.50;5113412;28;20047;-78
2021/08/04 01:13:21;;;;;;;2.83;1.80;;;;;;;22.84;61.73;100174.03;5130578;27;20366;-79
2021/08/04 01:15:53;;;;;;;3.55;1.73;;;;;;;22.89;61.74;100168.63;5114615;28;20035;-79
2021/08/04 01:18:29;;;;;;;4.57;1.65;;;;;;;22.81;61.96;100161.56;5112492;28;20132;-79
2021/08/04 01:21:00;;;;;;;3.65;2.45;;;;;;;22.75;61.97;100169.03;5113712;28;20470;-80
2021/08/04 01:23:42;;;;;;;3.58;1.55;;;;;;;22.80;61.41;100159.97;5112694;28;20038;-79
2021/08/04 01:26:22;;;;;;;1.40;1.00;;;;;;;22.82;60.89;100163.13;5095913;28;20054;-79
2021/08/04 01:28:52;;;;;;;1.00;0.95;;;;;;;22.80;60.37;100159.97;5112576;28;20126;-79
2021/08/04 01:31:26;;;;;;;4.35;1.98;;;;;;;22.78;59.83;100155.97;5114088;28;20031;-80
2021/08/04 01:33:56;;;;;;;4.00;1.55;;;;;;;22.70;59.61;100153.34;5129722;28;20054;-79
2021/08/04 01:36:22;;;;;;;2.45;1.70;;;;;;;22.67;58.92;100134.38;5114190;28;20060;-79
2021/08/04 01:38:55;;;;;;;4.07;1.60;;;;;;;22.63;57.79;100147.03;5129632;28;20061;-79
2021/08/04 01:41:25;;;;;;;3.42;1.98;;;;;;;22.65;57.23;100155.91;5130184;28;20092;-79
2021/08/04 01:43:51;;;;;;;2.35;1.17;;;;;;;22.62;57.36;100151.94;5110086;28;20136;-79
2021/08/04 01:46:17;;;;;;;4.43;1.50;;;;;;;22.59;56.81;100149.22;5116530;27;20496;-79
2021/08/04 01:48:53;;;;;;;4.25;1.45;;;;;;;22.54;56.39;100141.25;5117907;27;20110;-79
2021/08/04 01:51:24;;;;;;;2.97;1.38;;;;;;;22.55;55.96;100142.81;5116220;28;20020;-79
2021/08/04 01:53:50;;;;;;;3.38;1.60;;;;;;;22.56;55.13;100139.53;5133622;27;20055;-79
2021/08/04 01:56:19;;;;;;;3.03;1.60;;;;;;;22.55;55.30;100131.50;5117442;27;20024;-79
2021/08/04 01:58:47;;;;;;;3.75;1.45;;;;;;;22.65;54.54;100128.34;5116966;28;20034;-79
2021/08/04 02:01:13;;;;;;;2.60;1.20;;;;;;;22.67;54.76;100117.34;5116313;28;20032;-80
2021/08/04 02:03:42;;;;;;;2.05;1.27;;;;;;;22.70;55.21;100135.53;5116885;28;20053;-80
2021/08/04 02:06:35;;;;;;;2.72;1.30;;;;;;;22.72;54.96;100133.03;5117303;28;20020;-79
2021/08/04 02:09:15;;;;;;;4.15;1.42;;;;;;;22.78;54.98;100122.72;5100928;28;20028;-79
2021/08/04 02:11:52;;;;;;;1.30;1.20;;;;;;;22.83;54.64;100118.56;5116795;28;20318;-78
2021/08/04 02:14:30;;;;;;;4.45;1.20;;;;;;;22.83;54.33;100119.34;5133916;27;20481;-79
2021/08/04 02:17:08;;;;;;;3.65;1.50;;;;;;;22.87;54.15;100117.22;5116560;28;20074;-78
2021/08/04 02:19:36;;;;;;;5.78;1.20;;;;;;;22.85;53.89;100124.56;5115964;28;20123;-78
2021/08/04 02:22:07;;;;;;;3.13;1.45;;;;;;;22.83;53.68;100116.50;5115982;28;20034;-79
2021/08/04 02:24:38;;;;;;;3.28;2.08;;;;;;;22.75;54.24;100112.28;5116477;28;20048;-78
2021/08/04 02:27:07;;;;;;;4.45;1.77;;;;;;;22.74;54.19;100108.66;5132970;27;20034;-78
2021/08/04 02:29:39;;;;;;;1.42;1.20;;;;;;;22.77;54.52;100114.69;5132844;27;20038;-78
2021/08/04 02:32:10;;;;;;;6.90;1.65;;;;;;;22.78;54.21;100111.38;5116055;28;20476;-78
2021/08/04 02:34:38;;;;;;;3.90;1.40;;;;;;;22.82;53.89;100112.09;5116172;28;20028;-78
2021/08/04 02:37:08;;;;;;;2.28;1.33;;;;;;;22.79;54.14;100112.97;5115715;28;20024;-79
2021/08/04 02:39:39;;;;;;;4.70;1.73;;;;;;;22.76;54.07;100113.88;5116972;28;20426;-78
2021/08/04 02:42:10;;;;;;;3.58;1.45;;;;;;;22.75;54.19;100106.63;5115695;28;20038;-79
2021/08/04 02:44:41;;;;;;;4.13;1.38;;;;;;;22.76;53.92;100105.38;5115866;28;20432;-79
2021/08/04 02:47:10;;;;;;;2.72;1.33;;;;;;;22.72;54.29;100105.47;5117131;28;20034;-79
2021/08/04 02:49:39;;;;;;;3.92;1.77;;;;;;;22.72;53.92;100110.34;5115435;28;20031;-78
2021/08/04 02:52:08;;;;;;;3.67;1.52;;;;;;;22.77;53.60;100106.97;5115473;28;20051;-79
2021/08/04 02:54:37;;;;;;;3.58;1.45;;;;;;;22.53;53.21;100063.06;5115419;28;20031;-79
2021/08/04 02:57:04;;;;;;;3.08;1.40;;;;;;;22.78;53.26;100094.38;5131770;27;20030;-78
2021/08/04 02:59:32;;;;;;;1.75;1.10;;;;;;;22.77;52.88;100106.97;5115907;28;20028;-79
2021/08/04 03:02:02;;;;;;;6.28;1.40;;;;;;;22.80;52.60;100096.75;5115583;28;20032;-79
2021/08/04 03:04:30;;;;;;;3.92;1.27;;;;;;;22.82;52.47;100100.75;5132440;27;20069;-79
2021/08/04 03:07:01;;;;;;;1.20;1.10;;;;;;;22.86;52.06;100107.13;5115206;28;20024;-78
2021/08/04 03:09:32;;;;;;;2.85;1.30;;;;;;;22.90;51.77;100102.13;5115038;28;20062;-78
2021/08/04 03:12:03;;;;;;;4.43;1.98;;;;;;;22.95;51.37;100104.44;5115201;28;20042;-78
2021/08/04 03:14:34;;;;;;;5.90;1.50;;;;;;;22.94;51.44;100102.84;5116298;28;20028;-78
2021/08/04 03:16:59;;;;;;;3.40;1.45;;;;;;;22.97;51.14;100107.63;5114695;28;20466;-77
2021/08/04 03:19:28;;;;;;;2.45;1.67;;;;;;;22.88;52.03;100103.84;5114859;28;20047;-78
2021/08/04 03:21:53;;;;;;;4.63;1.65;;;;;;;22.89;50.93;100096.94;5116177;28;20020;-78
2021/08/04 03:24:22;;;;;;;4.68;1.30;;;;;;;22.85;51.07;100094.19;5115412;28;20157;-78
2021/08/04 03:26:50;;;;;;;4.07;1.63;;;;;;;22.91;50.81;100092.41;5114841;28;20080;-78
2021/08/04 03:29:18;;;;;;;4.70;2.80;;;;;;;22.88;51.13;100093.28;5114718;28;20046;-78
2021/08/04 03:31:49;;;;;;;16.55;13.82;;;;;;;22.88;51.34;100096.13;5114571;28;20024;-78
2021/08/04 03:34:15;;;;;;;44.85;36.83;;;;;;;22.86;50.91;100090.09;5115094;28;20093;-78
2021/08/04 03:36:44;;;;;;;53.22;40.55;;;;;;;22.75;50.57;100075.44;5114566;28;20462;-78
2021/08/04 03:39:14;;;;;;;37.95;31.35;;;;;;;22.89;50.48;100099.75;5114576;28;20032;-78
2021/08/04 03:41:45;;;;;;;35.08;30.95;;;;;;;22.80;50.46;100085.41;5114472;28;20032;-78
2021/08/04 03:44:14;;;;;;;37.50;29.70;;;;;;;22.88;50.59;100104.63;5115974;28;20487;-78
2021/08/04 03:46:46;;;;;;;29.38;25.23;;;;;;;22.90;50.64;100107.81;5114612;27;20366;-78
2021/08/04 03:49:13;;;;;;;28.65;22.95;;;;;;;22.88;50.81;100110.31;5114319;28;20043;-78
2021/08/04 03:51:41;;;;;;;26.85;20.83;;;;;;;22.84;50.53;100095.41;5115947;27;20106;-78
2021/08/04 03:54:09;;;;;;;13.68;12.02;;;;;;;22.87;50.46;100102.22;5114079;28;20088;-78
2021/08/04 03:56:37;;;;;;;10.82;7.65;;;;;;;22.91;49.98;100100.91;5114030;28;20030;-78
2021/08/04 03:59:05;;;;;;;8.43;6.70;;;;;;;22.89;50.26;100103.38;5113986;28;20494;-78
2021/08/04 04:01:39;;;;;;;6.72;4.50;;;;;;;22.96;49.30;100106.03;5113955;28;20470;-78
2021/08/04 04:04:08;;;;;;;5.82;2.13;;;;;;;22.98;48.21;100102.75;5113937;28;20028;-78
2021/08/04 04:06:33;;;;;;;5.35;2.72;;;;;;;23.04;47.43;100100.16;5113880;28;20023;-78
2021/08/04 04:08:59;;;;;;;5.18;3.38;;;;;;;23.02;47.63;100096.97;5113056;28;20032;-78
2021/08/04 04:11:26;;;;;;;4.63;2.85;;;;;;;23.15;47.16;100101.41;5113749;28;20108;-79
2021/08/04 04:13:54;;;;;;;3.25;2.92;;;;;;;23.19;46.64;100104.94;5113724;28;20034;-79
2021/08/04 04:16:23;;;;;;;7.20;3.25;;;;;;;23.27;46.65;100097.00;5113690;28;20024;-79
2021/08/04 04:18:52;;;;;;;5.47;3.13;;;;;;;23.38;45.88;100105.97;5113312;28;20056;-79
2021/08/04 04:21:20;;;;;;;3.97;2.60;;;;;;;23.36;45.56;100088.63;5113922;28;20048;-79
2021/08/04 04:23:50;;;;;;;5.85;3.10;;;;;;;23.60;45.78;100111.03;5114055;28;20070;-79
2021/08/04 04:26:21;;;;;;;6.43;2.30;;;;;;;23.66;46.02;100118.53;5113872;28;20140;-79
2021/08/04 04:28:47;;;;;;;3.30;2.78;;;;;;;23.73;45.44;100120.34;5113922;28;20378;-79
2021/08/04 04:31:15;;;;;;;8.50;2.80;;;;;;;23.85;44.65;100113.06;5113714;28;20024;-79
2021/08/04 04:33:41;;;;;;;9.88;2.25;;;;;;;23.95;44.50;100112.72;5113428;28;20023;-79
2021/08/04 04:36:09;;;;;;;4.57;2.15;;;;;;;24.15;44.76;100120.19;5113203;28;20038;-79
2021/08/04 04:38:37;;;;;;;7.88;2.13;;;;;;;24.30;44.06;100110.72;5113746;28;20059;-80
2021/08/04 04:41:05;;;;;;;4.25;1.77;;;;;;;24.54;43.63;100116.81;5113569;28;20043;-79
2021/08/04 04:43:38;;;;;;;4.40;1.75;;;;;;;24.79;43.58;100117.97;5113528;28;20458;-79
2021/08/04 04:46:10;;;;;;;3.75;1.58;;;;;;;25.05;42.72;100112.94;5113238;28;20027;-80
2021/08/04 04:48:38;;;;;;;3.63;2.10;;;;;;;25.31;42.09;100107.91;5113049;28;20027;-79
2021/08/04 04:51:06;;;;;;;3.35;2.10;;;;;;;25.59;41.69;100106.78;5113243;28;20115;-80
2021/08/04 04:53:31;;;;;;;5.13;2.05;;;;;;;25.83;40.38;100111.94;5113510;28;20027;-80
2021/08/04 04:55:57;;;;;;;4.50;1.73;;;;;;;26.05;40.39;100109.03;5113085;28;20138;-80
2021/08/04 04:58:28;;;;;;;5.45;2.70;;;;;;;26.27;39.28;100103.22;5113201;28;20039;-80
2021/08/04 05:00:53;;;;;;;5.80;1.75;;;;;;;26.56;39.09;100103.56;5130319;27;20039;-79
2021/08/04 05:03:24;;;;;;;4.38;1.83;;;;;;;26.86;38.22;100118.16;5112842;28;20081;-80
2021/08/04 05:05:50;;;;;;;3.35;1.60;;;;;;;27.04;37.85;100118.13;5114013;28;20035;-80
2021/08/04 05:08:21;;;;;;;4.55;1.40;;;;;;;27.37;37.88;100111.72;5113165;28;20032;-81
2021/08/04 05:10:49;;;;;;;6.25;1.55;;;;;;;27.61;37.01;100112.59;5112983;28;20474;-81
2021/08/04 05:13:18;;;;;;;2.90;1.60;;;;;;;28.02;36.38;100115.94;5112834;28;20085;-81
2021/08/04 05:15:44;;;;;;;2.03;1.40;;;;;;;28.38;35.85;100114.13;5112899;28;20031;-81
2021/08/04 05:18:12;;;;;;;3.63;1.60;;;;;;;28.80;34.85;100122.53;5112766;28;20108;-81
2021/08/04 05:20:40;;;;;;;7.60;1.98;;;;;;;29.12;34.26;100128.66;5112578;28;20397;-81
2021/08/04 05:23:08;;;;;;;4.68;1.48;;;;;;;29.53;33.24;100135.41;5130212;27;20346;-81
2021/08/04 05:25:42;;;;;;;5.50;2.42;;;;;;;29.92;32.99;100126.63;5112651;28;20031;-81
2021/08/04 05:28:10;;;;;;;5.63;1.50;;;;;;;30.22;32.76;100125.28;5113168;28;20066;-82
2021/08/04 05:30:38;;;;;;;5.03;1.95;;;;;;;30.63;32.19;100127.34;5112529;28;20038;-82
2021/08/04 05:33:04;;;;;;;5.88;2.13;;;;;;;30.93;31.90;100139.50;5112951;28;20036;-79
2021/08/04 05:35:32;;;;;;;3.97;2.05;;;;;;;31.28;31.50;100128.66;5112591;28;20410;-79
2021/08/04 05:38:00;;;;;;;3.90;1.77;;;;;;;31.44;31.18;100129.31;5113083;28;20420;-80
2021/08/04 05:40:34;;;;;;;4.00;1.83;;;;;;;31.70;30.60;100127.19;5113376;28;20500;-80
2021/08/04 05:43:05;;;;;;;8.95;2.47;;;;;;;31.42;30.76;100115.44;5112602;28;20031;-80
2021/08/04 05:45:36;;;;;;;6.60;2.10;;;;;;;31.29;32.85;100123.69;5113793;27;20020;-80
2021/08/04 05:48:05;;;;;;;6.65;2.55;;;;;;;31.89;31.36;100132.56;5112457;28;20104;-80
2021/08/04 05:50:35;;;;;;;8.85;2.55;;;;;;;31.72;31.61;100120.91;5113673;28;20111;-80
2021/08/04 05:53:06;;;;;;;4.38;2.45;;;;;;;32.15;32.08;100116.00;5112331;28;20039;-80
2021/08/04 05:55:37;;;;;;;6.35;2.30;;;;;;;32.40;32.28;100125.06;5113553;28;20020;-80
2021/08/04 05:58:08;;;;;;;5.57;2.95;;;;;;;32.70;31.29;100119.66;5112362;28;20031;-80
2021/08/04 06:00:41;;;;;;;6.15;2.33;;;;;;;32.84;31.29;100102.16;5112186;28;20127;-80
2021/08/04 06:03:07;;;;;;;7.55;2.63;;;;;;;32.81;32.12;100111.88;5114087;28;20032;-80
2021/08/04 06:05:32;;;;;;;4.03;2.42;;;;;;;32.91;32.29;100108.75;5112215;28;20043;-80
2021/08/04 06:08:00;;;;;;;8.45;3.00;;;;;;;32.73;32.57;100113.66;5112057;28;20036;-80
2021/08/04 06:10:26;;;;;;;12.50;3.70;;;;;;;32.32;33.24;100107.44;5129263;28;20038;-80
2021/08/04 06:12:56;;;;;;;7.47;2.92;;;;;;;33.02;31.74;100106.69;5113414;28;20027;-80
2021/08/04 06:15:27;;;;;;;6.75;3.00;;;;;;;33.24;30.68;100113.78;5112469;28;20367;-80
2021/08/04 06:17:58;;;;;;;9.13;3.13;;;;;;;33.26;31.37;100109.09;5111923;28;20051;-80
2021/08/04 06:20:30;;;;;;;6.53;3.75;;;;;;;33.64;30.81;100112.53;5112150;28;20481;-81
2021/08/04 06:22:55;;;;;;;11.63;3.95;;;;;;;34.15;29.85;100113.28;5112085;28;20023;-81
2021/08/04 06:25:24;;;;;;;5.93;2.88;;;;;;;34.49;29.41;100102.41;5129512;28;20028;-81
2021/08/04 06:27:55;;;;;;;11.85;2.95;;;;;;;34.71;29.07;100113.06;5112291;28;20114;-80
2021/08/04 06:30:24;;;;;;;7.13;2.90;;;;;;;34.92;28.67;100105.59;5111993;28;20027;-80
2021/08/04 06:32:52;;;;;;;7.35;2.47;;;;;;;35.27;26.89;100106.97;5113984;28;20028;-81
2021/08/04 06:35:21;;;;;;;5.55;3.13;;;;;;;35.44;25.79;100115.53;5117351;28;20088;-82
2021/08/04 06:37:51;;;;;;;5.07;2.50;;;;;;;35.64;21.83;100117.22;5116210;28;20054;-80
2021/08/04 06:40:17;;;;;;;2.72;1.20;;;;;;;36.15;21.63;100114.59;5116900;27;20039;-83
2021/08/04 06:42:48;;;;;;;4.40;1.88;;;;;;;36.40;21.35;100113.25;5115704;28;20462;-81
2021/08/04 06:45:19;;;;;;;3.25;1.55;;;;;;;36.75;20.63;100120.19;5115578;28;20035;-81
2021/08/04 06:47:49;;;;;;;4.88;1.98;;;;;;;36.37;21.07;100120.13;5115570;28;20042;-81
2021/08/04 06:50:17;;;;;;;3.88;1.55;;;;;;;35.67;20.40;100119.00;5116476;28;20394;-80
2021/08/04 06:52:45;;;;;;;8.93;1.75;;;;;;;36.14;20.32;100118.84;5115698;28;20031;-81
2021/08/04 06:55:13;;;;;;;6.63;1.75;;;;;;;36.49;20.50;100117.13;5114987;28;20152;-81
2021/08/04 06:57:44;;;;;;;5.38;1.30;;;;;;;36.03;20.65;100116.84;5115976;28;20501;-81
2021/08/04 07:00:11;;;;;;;3.70;1.70;;;;;;;36.81;20.45;100115.13;5115303;28;20019;-80
2021/08/04 07:02:36;;;;;;;7.05;2.55;;;;;;;37.16;20.45;100130.72;5115429;28;20374;-80
2021/08/04 07:05:05;;;;;;;4.78;1.63;;;;;;;36.64;20.19;100114.56;5115250;28;20035;-80
2021/08/04 07:07:34;;;;;;;6.53;1.90;;;;;;;36.36;20.59;100121.47;5116198;28;20034;-81
2021/08/04 07:10:02;;;;;;;5.53;2.28;;;;;;;36.01;19.97;100116.63;5132485;27;20506;-81
2021/08/04 07:12:33;;;;;;;3.28;1.60;;;;;;;35.90;20.11;100113.78;5132400;27;20081;-81
2021/08/04 07:15:02;;;;;;;5.43;1.90;;;;;;;36.34;20.38;100109.66;5132471;27;20046;-81
2021/08/04 07:17:50;;;;;;;4.55;1.65;;;;;;;35.65;21.06;100101.41;5131853;27;20052;-80
2021/08/04 07:20:21;;;;;;;3.40;2.13;;;;;;;35.63;20.85;100101.94;5114830;27;20042;-81
2021/08/04 07:22:52;;;;;;;7.20;2.28;;;;;;;35.13;21.52;100108.91;5115853;27;20122;-81
2021/08/04 07:25:20;;;;;;;5.37;1.70;;;;;;;35.10;22.21;100097.59;5115998;28;20028;-81
2021/08/04 07:27:49;;;;;;;5.53;1.52;;;;;;;35.00;21.88;100105.84;5114734;28;20020;-80
2021/08/04 07:30:20;;;;;;;5.05;2.03;;;;;;;36.12;21.08;100104.13;5114597;28;20032;-80
2021/08/04 07:32:55;;;;;;;5.45;2.17;;;;;;;35.73;21.73;100107.38;5115881;28;20032;-80
2021/08/04 07:35:23;;;;;;;5.50;1.90;;;;;;;34.93;22.83;100107.16;5114651;28;20023;-81
2021/08/04 07:37:51;;;;;;;6.72;1.83;;;;;;;34.93;23.38;100107.16;5115041;28;20047;-80
2021/08/04 07:40:20;;;;;;;8.30;2.08;;;;;;;34.56;23.33;100109.72;5132212;27;20027;-80
2021/08/04 07:42:49;;;;;;;2.25;1.63;;;;;;;34.56;23.55;100106.81;5116124;28;20028;-80
2021/08/04 07:45:21;;;;;;;4.30;1.88;;;;;;;34.88;22.94;100099.28;5131757;27;20428;-80
2021/08/04 07:47:50;;;;;;;6.25;2.03;;;;;;;35.16;22.81;100102.06;5131430;27;20031;-80
2021/08/04 07:50:18;;;;;;;4.80;2.08;;;;;;;34.62;23.71;100113.38;5115748;28;20161;-80
2021/08/04 07:52:48;;;;;;;4.85;2.38;;;;;;;35.33;23.45;100101.13;5114084;28;20195;-80
2021/08/04 07:55:16;;;;;;;7.90;2.58;;;;;;;34.85;24.04;100117.72;5114511;28;20028;-80
2021/08/04 07:57:47;;;;;;;6.68;2.65;;;;;;;34.62;24.18;100128.63;5114166;28;20019;-80
2021/08/04 08:00:16;;;;;;;10.02;2.55;;;;;;;34.96;24.02;100110.34;5115928;27;20050;-80
2021/08/04 08:02:46;;;;;;;5.15;2.53;;;;;;;34.82;24.22;100113.00;5114094;28;20051;-80
2021/08/04 08:05:17;;;;;;;8.43;2.08;;;;;;;35.54;23.37;100116.00;5113902;28;20031;-80
2021/08/04 08:07:50;;;;;;;6.88;2.17;;;;;;;36.39;22.30;100111.69;5131926;27;20535;-80
2021/08/04 08:10:18;;;;;;;8.80;2.83;;;;;;;36.13;22.49;100123.06;5114398;28;20032;-80
2021/08/04 08:12:45;;;;;;;3.97;2.42;;;;;;;36.49;22.00;100114.22;5116016;28;20031;-80
2021/08/04 08:15:17;;;;;;;7.03;2.60;;;;;;;35.81;23.08;100109.16;5114383;28;20036;-80
2021/08/04 08:17:43;;;;;;;5.78;2.53;;;;;;;35.91;23.11;100101.69;5115551;28;20213;-80
2021/08/04 08:20:09;;;;;;;9.90;2.95;;;;;;;35.86;22.26;100111.22;5115148;28;20028;-80
2021/08/04 08:22:37;;;;;;;7.47;2.70;;;;;;;35.23;23.50;100094.91;5114562;28;20381;-80
2021/08/04 08:25:03;;;;;;;5.85;2.00;;;;;;;35.75;22.42;100070.81;5114095;28;20059;-81
2021/08/04 08:27:32;;;;;;;8.70;2.78;;;;;;;34.90;23.54;100102.44;5113779;28;20031;-80
2021/08/04 08:30:06;;;;;;;4.85;2.50;;;;;;;35.18;23.63;100101.50;5114103;28;20016;-81
2021/08/04 08:32:34;;;;;;;5.05;2.45;;;;;;;36.34;22.52;100100.97;5118002;27;20038;-78
2021/08/04 08:35:03;;;;;;;8.73;2.70;;;;;;;36.17;23.28;100117.75;5115967;28;20037;-79
2021/08/04 08:37:34;;;;;;;12.75;3.08;;;;;;;36.63;22.67;100119.56;5114955;28;20336;-78
2021/08/04 08:40:03;;;;;;;3.92;2.22;;;;;;;36.11;22.53;100102.53;5130390;27;20016;-79
2021/08/04 08:42:35;;;;;;;5.88;2.35;;;;;;;36.47;21.44;100135.06;5131409;27;20032;-79
2021/08/04 08:45:03;;;;;;;7.38;2.30;;;;;;;37.04;20.35;100117.75;5113786;28;20080;-79
2021/08/04 08:47:31;;;;;;;9.52;3.08;;;;;;;37.05;20.96;100122.97;5113496;28;20031;-79
2021/08/04 08:50:01;;;;;;;7.90;2.58;;;;;;;36.15;20.95;100109.59;5130701;27;20023;-79
2021/08/04 08:52:32;;;;;;;6.07;2.55;;;;;;;36.40;21.16;100106.69;5113297;28;20055;-79
2021/08/04 08:55:03;;;;;;;8.23;2.80;;;;;;;37.01;21.00;100110.13;5112916;28;20113;-79
2021/08/04 08:57:31;;;;;;;5.78;2.80;;;;;;;36.68;21.03;100106.34;5130603;27;20489;-79
2021/08/04 09:00:00;;;;;;;6.45;2.40;;;;;;;36.64;20.79;100095.06;5113209;28;20024;-79
2021/08/04 09:02:31;;;;;;;6.30;2.92;;;;;;;36.48;21.25;100084.47;5114269;28;20020;-79
2021/08/04 09:05:02;;;;;;;11.13;3.00;;;;;;;36.79;20.67;100090.91;5113077;28;20114;-78
2021/08/04 09:07:32;;;;;;;5.60;2.08;;;;;;;36.92;20.22;100074.41;5113038;28;20031;-78
2021/08/04 09:09:57;;;;;;;8.10;2.45;;;;;;;36.88;19.93;100076.81;5113485;28;20073;-80
2021/08/04 09:12:23;;;;;;;5.30;2.50;;;;;;;37.21;19.21;100074.75;5130674;27;20031;-80
2021/08/04 09:14:54;;;;;;;5.07;2.08;;;;;;;36.75;19.95;100073.06;5113375;28;20031;-79
2021/08/04 09:17:19;;;;;;;6.40;2.20;;;;;;;36.95;19.63;100064.59;5112712;28;20028;-80
2021/08/04 09:19:48;;;;;;;3.83;2.13;;;;;;;36.97;19.53;100059.06;5129788;27;20034;-79
2021/08/04 09:22:24;;;;;;;4.32;2.15;;;;;;;36.78;19.30;100049.56;5114093;28;20035;-79
2021/08/04 09:25:04;;;;;;;5.10;2.20;;;;;;;36.96;20.07;100048.75;5113169;28;20054;-79
2021/08/04 09:27:49;;;;;;;5.80;2.13;;;;;;;37.43;19.23;100057.00;5113391;28;20069;-80
2021/08/04 09:30:18;;;;;;;4.35;2.25;;;;;;;38.46;18.31;100066.94;5112704;28;20486;-79
2021/08/04 09:32:46;;;;;;;6.13;2.20;;;;;;;38.24;18.66;100049.91;5113055;28;20024;-81
2021/08/04 09:35:18;;;;;;;6.38;2.55;;;;;;;38.67;18.10;100057.47;5112542;28;20027;-79
2021/08/04 09:37:47;;;;;;;3.22;2.08;;;;;;;38.93;16.49;100066.13;5114348;28;20030;-80
2021/08/04 09:40:21;;;;;;;6.38;2.42;;;;;;;38.78;16.84;100060.19;5113836;28;20080;-80
2021/08/04 09:42:52;;;;;;;6.07;1.85;;;;;;;38.50;17.37;100038.28;5114338;28;20028;-80
2021/08/04 09:45:38;;;;;;;7.72;1.83;;;;;;;38.06;17.82;100042.91;5112696;28;20065;-80
2021/08/04 09:48:11;;;;;;;6.03;2.33;;;;;;;37.83;17.65;100022.25;5129815;28;20106;-81
2021/08/04 09:50:59;;;;;;;7.22;2.50;;;;;;;38.56;17.83;100046.09;5095815;28;20084;-80
2021/08/04 09:53:34;;;;;;;5.05;2.00;;;;;;;38.68;17.73;100054.03;5113586;28;20024;-81
2021/08/04 09:56:13;;;;;;;8.40;3.03;;;;;;;39.80;16.67;100042.53;5113211;28;20412;-79
2021/08/04 09:58:49;;;;;;;7.90;2.55;;;;;;;39.15;16.97;100046.56;5113671;28;20054;-81
2021/08/04 10:01:17;;;;;;;4.05;2.10;;;;;;;38.68;17.75;100032.91;5112380;28;20030;-81
2021/08/04 10:04:05;;;;;;;6.95;2.28;;;;;;;38.22;18.26;100032.28;5114489;28;20062;-81
2021/08/04 10:06:34;;;;;;;8.63;2.45;;;;;;;37.38;18.84;100031.75;5114535;28;20470;-81
2021/08/04 10:09:07;;;;;;;6.03;2.20;;;;;;;37.32;18.51;100010.75;5118059;28;20423;-82
2021/08/04 10:11:40;;;;;;;5.82;2.50;;;;;;;37.64;18.61;100009.94;5116314;28;20039;-81
2021/08/04 10:14:13;;;;;;;4.43;2.15;;;;;;;37.83;18.70;100013.56;5118631;28;20030;-80
2021/08/04 10:16:43;;;;;;;8.07;2.42;;;;;;;37.93;18.94;100016.78;5119476;28;20468;-80
2021/08/04 10:19:09;;;;;;;7.05;2.92;;;;;;;38.68;17.97;100029.97;5134653;27;20056;-81
2021/08/04 10:21:41;;;;;;;7.63;2.63;;;;;;;38.90;17.56;100017.84;5116734;28;20027;-81
2021/08/04 10:24:12;;;;;;;4.47;2.13;;;;;;;38.46;18.03;100022.53;5116933;28;20032;-81
2021/08/04 10:26:38;;;;;;;5.32;2.33;;;;;;;38.85;17.74;100020.88;5117424;28;20481;-81
2021/08/04 10:29:07;;;;;;;5.03;2.30;;;;;;;39.18;16.81;100016.38;5116370;28;20071;-81
2021/08/04 10:31:34;;;;;;;7.72;2.45;;;;;;;39.12;16.89;100012.81;5133478;27;20039;-81
2021/08/04 10:34:01;;;;;;;7.60;2.25;;;;;;;38.56;17.25;100014.13;5116115;28;20031;-80
2021/08/04 10:36:39;;;;;;;9.98;2.47;;;;;;;38.67;17.40;100010.97;5115927;28;20028;-81
2021/08/04 10:39:10;;;;;;;5.30;2.33;;;;;;;38.87;17.22;100003.66;5115650;28;20043;-80
2021/08/04 10:41:41;;;;;;;8.55;2.58;;;;;;;38.74;16.81;100016.13;5133409;27;20031;-79
2021/08/04 10:44:27;;;;;;;4.95;2.70;;;;;;;39.19;16.74;100017.94;5116453;28;20458;-80
2021/08/04 10:46:56;;;;;;;5.45;2.60;;;;;;;38.89;15.89;100007.56;5116428;27;20063;-79
2021/08/04 10:49:27;;;;;;;8.63;3.38;;;;;;;39.30;15.93;99994.38;5132828;27;20031;-79
2021/08/04 10:52:01;;;;;;;7.40;2.75;;;;;;;39.81;15.74;100002.56;5117094;28;20031;-79
2021/08/04 10:54:30;;;;;;;7.95;2.80;;;;;;;39.92;15.83;100008.06;5115581;28;20544;-79
2021/08/04 10:56:58;;;;;;;8.13;2.50;;;;;;;39.89;14.87;100002.59;5117155;28;20023;-79
2021/08/04 10:59:32;;;;;;;9.75;2.97;;;;;;;39.81;15.55;99985.06;5115410;28;20062;-79
2021/08/04 11:02:04;;;;;;;9.23;2.65;;;;;;;39.59;15.57;100006.06;5116917;28;20023;-79
2021/08/04 11:04:39;;;;;;;6.38;2.38;;;;;;;39.52;14.97;99972.63;5115333;28;20028;-79
2021/08/04 11:07:09;;;;;;;12.20;2.65;;;;;;;39.74;15.39;99991.66;5115799;28;20489;-78
2021/08/04 11:09:39;;;;;;;6.28;2.47;;;;;;;40.05;15.11;99999.19;5116907;28;20469;-79
2021/08/04 11:12:29;;;;;;;9.88;2.45;;;;;;;40.22;15.12;99989.22;5115652;28;20491;-79
2021/08/04 11:15:01;;;;;;;7.93;1.98;;;;;;;40.66;14.70;99989.97;5101885;28;20050;-79
2021/08/04 11:17:56;;;;;;;5.97;2.80;;;;;;;41.25;13.92;99994.91;5115827;28;20534;-79
2021/08/04 11:20:21;;;;;;;11.10;3.15;;;;;;;39.82;14.67;99983.72;5115181;28;20069;-80
2021/08/04 11:22:49;;;;;;;7.20;2.28;;;;;;;40.12;14.32;99986.06;5115148;28;20028;-79
2021/08/04 11:25:41;;;;;;;6.45;2.50;;;;;;;39.65;14.79;99983.44;5115030;28;20477;-79
2021/08/04 11:28:15;;;;;;;9.48;2.60;;;;;;;39.82;14.58;99974.97;5116229;28;20081;-79
2021/08/04 11:30:45;;;;;;;4.78;1.75;;;;;;;39.69;15.00;99984.63;5116195;27;20019;-79
2021/08/04 11:33:22;;;;;;;6.65;2.38;;;;;;;38.97;15.79;99998.91;5117038;27;20367;-79
2021/08/04 11:36:02;;;;;;;7.97;2.85;;;;;;;39.33;15.85;99986.66;5115754;28;20059;-79
2021/08/04 11:38:42;;;;;;;10.85;2.40;;;;;;;39.33;15.46;99981.63;5115606;28;20031;-81